createdAt,value
2022-10-02T00:05:07.530Z,22.30
2022-10-02T00:13:21.484Z,22.40
2022-10-02T00:21:39.151Z,22.40
2022-10-02T00:29:52.658Z,22.30
2022-10-02T00:38:04.320Z,22.40
2022-10-02T00:46:29.807Z,22.30
2022-10-02T00:54:58.522Z,22.20
2022-10-02T01:03:21.247Z,22.30
2022-10-02T01:11:30.791Z,22.20
2022-10-02T01:19:42.375Z,22.10
2022-10-02T01:27:50.836Z,22.10
2022-10-02T01:35:56.146Z,22.00
2022-10-02T01:44:05.468Z,22.00
2022-10-02T01:52:41.241Z,21.80
2022-10-02T02:01:08.257Z,21.40
2022-10-02T02:09:20.185Z,21.40
2022-10-02T02:17:34.604Z,21.40
2022-10-02T02:25:45.347Z,21.40
2022-10-02T02:33:57.545Z,21.00
2022-10-02T02:42:06.659Z,20.80
2022-10-02T02:50:21.537Z,20.80
2022-10-02T02:58:34.862Z,20.70
2022-10-02T03:06:43.530Z,20.50
2022-10-02T03:15:27.248Z,20.20
2022-10-02T03:23:37.397Z,20.10
2022-10-02T03:31:44.196Z,19.90
2022-10-02T03:39:53.109Z,19.70
2022-10-02T03:47:58.390Z,19.60
2022-10-02T03:56:10.757Z,19.60
2022-10-02T04:04:19.276Z,19.40
2022-10-02T04:12:32.241Z,19.30
2022-10-02T04:20:44.561Z,19.10
2022-10-02T04:28:57.578Z,19.10
2022-10-02T04:37:14.295Z,19.30
2022-10-02T04:45:33.203Z,19.00
2022-10-02T04:53:53.252Z,19.00
2022-10-02T05:02:15.974Z,19.00
2022-10-02T05:10:44.134Z,18.80
2022-10-02T05:19:08.839Z,18.60
2022-10-02T05:27:39.237Z,19.00
2022-10-02T05:36:01.529Z,18.90
2022-10-02T05:44:15.358Z,19.00
2022-10-02T05:52:27.691Z,19.00
2022-10-02T06:00:40.512Z,18.50
2022-10-02T06:08:54.619Z,19.00
2022-10-02T06:17:04.359Z,19.30
2022-10-02T06:25:20.379Z,19.00
2022-10-02T06:33:28.336Z,19.00
2022-10-02T06:41:45.475Z,19.50
2022-10-02T06:50:07.807Z,19.90
2022-10-02T06:58:34.366Z,19.70
2022-10-02T07:06:48.039Z,20.30
2022-10-02T07:15:22.086Z,20.90
2022-10-02T07:23:44.086Z,20.90
2022-10-02T07:32:04.638Z,21.20
2022-10-02T07:40:30.144Z,21.20
2022-10-02T07:48:59.090Z,21.00
2022-10-02T07:57:21.863Z,21.20
2022-10-02T08:05:36.595Z,21.40
2022-10-02T08:13:46.464Z,21.50
2022-10-02T08:22:25.072Z,21.30
2022-10-02T08:30:30.553Z,21.40
2022-10-02T08:38:54.504Z,20.90
2022-10-02T08:47:33.337Z,21.00
2022-10-02T08:55:52.265Z,21.40
2022-10-02T09:04:38.371Z,22.10
2022-10-02T09:13:22.902Z,22.60
2022-10-02T09:21:51.705Z,23.10
2022-10-02T09:30:29.917Z,23.80
2022-10-02T09:39:16.494Z,25.30
2022-10-02T09:48:05.235Z,33.90
2022-10-02T09:56:41.337Z,41.60
2022-10-02T10:05:15.722Z,43.30
2022-10-02T10:13:47.714Z,45.00
2022-10-02T10:22:46.034Z,43.20
2022-10-02T10:31:40.942Z,45.00
2022-10-02T10:40:10.014Z,44.00
2022-10-02T10:48:37.834Z,46.50
2022-10-02T10:56:46.466Z,47.40
2022-10-02T11:05:08.725Z,48.50
2022-10-02T11:13:41.957Z,48.90
2022-10-02T11:22:31.007Z,48.30
2022-10-02T11:30:50.003Z,46.50
2022-10-02T11:39:15.187Z,35.70
2022-10-02T11:47:46.828Z,29.80
2022-10-02T11:56:09.093Z,26.60
2022-10-02T12:04:32.254Z,25.30
2022-10-02T12:12:51.714Z,24.70
2022-10-02T12:21:30.292Z,24.30
2022-10-02T12:29:52.256Z,24.00
2022-10-02T12:38:07.447Z,23.70
2022-10-02T12:46:42.395Z,23.70
2022-10-02T12:55:19.378Z,23.80
2022-10-02T13:04:06.179Z,23.80
2022-10-02T13:12:32.597Z,24.20
2022-10-02T13:20:49.608Z,24.00
2022-10-02T13:29:21.072Z,23.70
2022-10-02T13:37:40.540Z,23.20
2022-10-02T13:45:53.347Z,23.00
2022-10-02T13:54:18.687Z,22.60
2022-10-02T14:02:48.567Z,22.30
2022-10-02T14:11:10.035Z,22.20
2022-10-02T14:19:32.312Z,22.30
2022-10-02T14:28:23.124Z,22.10
2022-10-02T14:36:34.114Z,22.10
2022-10-02T14:45:04.843Z,22.20
2022-10-02T14:53:23.537Z,22.40
2022-10-02T15:01:31.947Z,22.60
2022-10-02T15:10:07.489Z,22.50
2022-10-02T15:18:27.008Z,22.60
2022-10-02T15:26:48.917Z,22.30
2022-10-02T15:35:07.629Z,21.70
2022-10-02T15:43:35.072Z,21.50
2022-10-02T15:52:02.592Z,21.60
2022-10-02T16:00:19.896Z,21.40
2022-10-02T16:08:54.683Z,21.50
2022-10-02T16:17:18.746Z,21.40
2022-10-02T16:25:38.366Z,21.30
2022-10-02T16:33:56.673Z,21.00
2022-10-02T16:42:13.631Z,20.90
2022-10-02T16:50:28.353Z,20.90
2022-10-02T16:58:42.868Z,20.80
2022-10-02T17:06:56.144Z,20.90
2022-10-02T17:15:08.250Z,20.90
2022-10-02T17:23:25.728Z,20.80
2022-10-02T17:31:39.072Z,20.60
2022-10-02T17:39:59.073Z,20.50
2022-10-02T17:48:35.587Z,20.40
2022-10-02T17:56:56.062Z,20.30
2022-10-02T18:05:22.117Z,20.00
2022-10-02T18:13:44.184Z,20.20
2022-10-02T18:22:08.285Z,20.20
2022-10-02T18:30:22.289Z,20.10
2022-10-02T18:38:34.092Z,19.70
2022-10-02T18:46:51.941Z,19.70
2022-10-02T18:55:19.244Z,19.30
2022-10-02T19:03:35.463Z,19.20
2022-10-02T19:11:47.516Z,19.00
2022-10-02T19:19:56.867Z,19.00
2022-10-02T19:28:03.804Z,19.00
2022-10-02T19:36:20.711Z,18.90
2022-10-02T19:44:30.588Z,19.00
2022-10-02T19:52:49.311Z,19.00
2022-10-02T20:00:56.746Z,18.90
2022-10-02T20:09:10.339Z,19.00
2022-10-02T20:17:17.998Z,19.10
2022-10-02T20:25:29.674Z,19.10
2022-10-02T20:33:40.450Z,19.20
2022-10-02T20:41:52.836Z,19.10
2022-10-02T20:50:24.503Z,19.20
2022-10-02T20:59:09.965Z,19.30
2022-10-02T21:07:40.916Z,19.30
2022-10-02T21:16:13.975Z,19.30
2022-10-02T21:24:49.752Z,19.20
2022-10-02T21:33:16.234Z,19.30
2022-10-02T21:41:48.741Z,19.10
2022-10-02T21:50:23.732Z,19.10
2022-10-02T21:58:58.599Z,18.90
2022-10-02T22:07:10.428Z,18.90
2022-10-02T22:15:25.241Z,18.90
2022-10-02T22:23:46.087Z,19.00
2022-10-02T22:32:34.922Z,18.90
2022-10-02T22:40:52.468Z,18.80
2022-10-02T22:49:05.952Z,18.80
2022-10-02T22:57:20.406Z,18.80
2022-10-02T23:05:33.844Z,18.70
2022-10-02T23:13:47.260Z,18.70
2022-10-02T23:21:59.680Z,18.60
2022-10-02T23:30:11.856Z,18.60
2022-10-02T23:38:23.930Z,18.10
2022-10-02T23:46:35.956Z,18.30
2022-10-02T23:54:55.466Z,18.10
